Time;durP1;ratioP1;P1;durP2;ratioP2;P2;SDS_P1;SDS_P2;PMS_P1;PMS_P2;Temp;Humidity;BMP_temperature;BMP_pressure;BME280_temperature;BME280_humidity;BME280_pressure;Samples;Min_cycle;Max_cycle;Signal;HPM_P1;HPM_P2
2023/07/17 00:00:05;;;;;;;5.45;2.50;;;;;;;17.83;100.00;101434.00;4919119;29;20042;-69
2023/07/17 00:02:32;;;;;;;7.70;2.95;;;;;;;17.82;100.00;101437.66;4924582;29;20051;-70
2023/07/17 00:04:58;;;;;;;7.78;2.97;;;;;;;17.83;100.00;101424.19;4918417;29;20501;-69
2023/07/17 00:07:25;;;;;;;5.75;3.03;;;;;;;17.79;100.00;101433.53;4928982;29;20051;-70
2023/07/17 00:09:52;;;;;;;5.07;2.60;;;;;;;17.76;100.00;101433.91;4927022;29;20059;-68
2023/07/17 00:12:18;;;;;;;5.70;2.88;;;;;;;17.66;100.00;101436.81;4915532;29;20094;-67
2023/07/17 00:14:45;;;;;;;6.82;2.97;;;;;;;17.63;100.00;101439.81;4929083;29;20114;-68
2023/07/17 00:17:12;;;;;;;6.47;3.17;;;;;;;17.59;100.00;101435.84;4916668;29;20158;-68
2023/07/17 00:19:39;;;;;;;8.75;4.00;;;;;;;17.57;100.00;101437.84;4925745;29;20048;-69
2023/07/17 00:22:07;;;;;;;6.07;3.03;;;;;;;17.59;100.00;101441.97;4919509;29;20067;-70
2023/07/17 00:24:33;;;;;;;9.68;3.10;;;;;;;17.58;100.00;101436.84;4932386;29;20058;-68
2023/07/17 00:27:01;;;;;;;5.03;2.80;;;;;;;17.59;100.00;101438.50;4930262;29;20780;-68
2023/07/17 00:29:28;;;;;;;;;;;;;;;17.58;100.00;101443.00;4920388;29;20115;-69
2023/07/17 00:31:56;;;;;;;8.45;3.45;;;;;;;17.51;100.00;101444.69;4923429;29;19956;-68
2023/07/17 00:34:22;;;;;;;7.05;3.22;;;;;;;17.46;100.00;101452.34;4922510;28;20066;-67
2023/07/17 00:36:49;;;;;;;4.70;3.20;;;;;;;17.39;100.00;101449.59;4930354;29;20130;-69
2023/07/17 00:39:16;;;;;;;10.40;3.45;;;;;;;17.36;100.00;101457.88;4921009;29;20134;-69
2023/07/17 00:41:42;;;;;;;10.10;3.50;;;;;;;17.32;100.00;101453.13;4930732;29;20059;-68
2023/07/17 00:44:09;;;;;;;8.18;4.20;;;;;;;17.28;100.00;101457.13;4923577;29;20568;-70
2023/07/17 00:46:36;;;;;;;5.40;3.03;;;;;;;17.23;100.00;101451.50;4916851;29;20084;-70
2023/07/17 00:49:03;;;;;;;5.90;3.50;;;;;;;17.23;100.00;101452.34;4928837;29;20703;-72
2023/07/17 00:51:31;;;;;;;5.32;3.13;;;;;;;17.26;100.00;101467.06;4922309;29;20135;-70
2023/07/17 00:53:59;;;;;;;9.20;3.13;;;;;;;17.20;100.00;101458.81;4927486;29;20080;-71
2023/07/17 00:56:27;;;;;;;6.13;3.17;;;;;;;17.18;100.00;101468.75;4920150;28;20130;-68
2023/07/17 00:58:54;;;;;;;8.32;3.15;;;;;;;17.15;100.00;101461.16;4921834;29;20048;-69
2023/07/17 01:01:21;;;;;;;8.73;3.45;;;;;;;17.10;100.00;101462.69;4925316;29;20139;-63
2023/07/17 01:03:51;;;;;;;11.27;3.83;;;;;;;17.07;100.00;101466.53;4915585;29;20486;-65
2023/07/17 01:06:17;;;;;;;5.85;3.00;;;;;;;17.08;100.00;101462.03;4930414;29;20043;-63
2023/07/17 01:08:44;;;;;;;6.90;3.28;;;;;;;16.99;100.00;101459.44;4924173;29;20070;-63
2023/07/17 01:11:11;;;;;;;6.85;3.35;;;;;;;17.00;100.00;101465.56;4924933;29;20081;-62
2023/07/17 01:13:46;;;;;;;7.25;3.33;;;;;;;17.01;100.00;101461.88;4917531;28;20485;-63
2023/07/17 01:16:13;;;;;;;8.60;3.33;;;;;;;16.94;100.00;101458.28;4925168;29;20523;-63
2023/07/17 01:18:40;;;;;;;7.07;3.17;;;;;;;16.94;100.00;101460.94;4926985;29;20067;-65
2023/07/17 01:21:08;;;;;;;10.27;3.03;;;;;;;16.94;100.00;101460.94;4923679;29;20048;-62
2023/07/17 01:23:36;;;;;;;6.70;3.25;;;;;;;16.94;100.00;101467.06;4922092;29;20059;-62
2023/07/17 01:26:16;;;;;;;5.85;2.92;;;;;;;16.95;100.00;101466.06;4917726;29;20055;-62
2023/07/17 01:28:44;;;;;;;10.07;3.55;;;;;;;16.83;100.00;101467.44;4926841;29;20052;-63
2023/07/17 01:31:11;;;;;;;6.27;3.27;;;;;;;16.88;100.00;101477.53;4917820;29;20047;-62
2023/07/17 01:33:38;;;;;;;6.63;3.20;;;;;;;16.88;100.00;101473.06;4921244;29;20044;-63
2023/07/17 01:36:06;;;;;;;7.65;3.15;;;;;;;16.82;100.00;101475.53;4925940;29;20089;-63
2023/07/17 01:38:33;;;;;;;9.05;3.60;;;;;;;16.82;100.00;101478.19;4922174;29;20147;-64
2023/07/17 01:41:00;;;;;;;5.60;2.95;;;;;;;16.81;100.00;101480.00;4916085;29;20075;-62
2023/07/17 01:43:27;;;;;;;6.43;2.90;;;;;;;16.74;100.00;101479.88;4915604;28;20675;-62
2023/07/17 01:45:53;;;;;;;8.02;3.40;;;;;;;16.74;100.00;101479.88;4926967;29;20052;-63
2023/07/17 01:48:20;;;;;;;8.30;3.15;;;;;;;16.69;100.00;101470.78;4924861;29;20065;-62
2023/07/17 01:50:47;;;;;;;7.03;3.33;;;;;;;16.61;100.00;101475.09;4917971;29;20048;-62
2023/07/17 01:53:21;;;;;;;7.88;3.25;;;;;;;16.58;100.00;101479.91;4918146;29;20048;-64
2023/07/17 01:55:48;;;;;;;7.00;2.75;;;;;;;16.52;100.00;101484.06;4918882;29;20282;-63
2023/07/17 01:58:15;;;;;;;7.13;3.23;;;;;;;16.43;100.00;101479.78;4921326;29;20515;-62
2023/07/17 02:00:41;;;;;;;6.57;3.10;;;;;;;16.47;100.00;101482.94;4916933;29;20675;-63
2023/07/17 02:03:08;;;;;;;8.50;3.67;;;;;;;16.39;100.00;101475.81;4931470;29;20055;-63
2023/07/17 02:05:35;;;;;;;9.27;3.53;;;;;;;16.32;100.00;101485.44;4926638;29;20062;-65
2023/07/17 02:08:01;;;;;;;8.30;3.70;;;;;;;16.31;100.00;101478.50;4926923;29;20056;-62
2023/07/17 02:10:28;;;;;;;8.15;3.20;;;;;;;16.31;100.00;101481.16;4923429;29;20143;-62
2023/07/17 02:12:54;;;;;;;7.63;3.20;;;;;;;16.25;100.00;101479.13;4926309;29;20079;-63
2023/07/17 02:15:21;;;;;;;10.18;3.83;;;;;;;16.18;100.00;101484.28;4929184;29;20114;-62
2023/07/17 02:17:48;;;;;;;7.38;3.40;;;;;;;16.18;100.00;101479.81;4922432;28;20076;-63
2023/07/17 02:20:14;;;;;;;6.55;2.90;;;;;;;16.23;100.00;101481.13;4928566;29;20054;-68
2023/07/17 02:22:41;;;;;;;8.18;3.15;;;;;;;16.23;100.00;101483.78;4917843;29;20831;-68
2023/07/17 02:25:08;;;;;;;10.40;4.07;;;;;;;16.18;100.00;101476.34;4926520;29;20164;-68
2023/07/17 02:27:35;;;;;;;12.02;3.53;;;;;;;16.18;100.00;101484.28;4928651;29;20065;-68
2023/07/17 02:30:03;;;;;;;11.50;3.20;;;;;;;16.17;100.00;101488.75;4930186;29;20063;-68
2023/07/17 02:32:31;;;;;;;9.32;3.10;;;;;;;16.10;100.00;101484.31;4929596;29;20063;-63
2023/07/17 02:34:58;;;;;;;10.50;3.40;;;;;;;16.08;100.00;101486.28;4918910;29;20039;-63
2023/07/17 02:37:25;;;;;;;7.97;3.10;;;;;;;16.03;100.00;101486.75;4926876;29;20054;-63
2023/07/17 02:39:52;;;;;;;7.95;3.35;;;;;;;15.97;100.00;101480.31;4921982;29;20056;-63
2023/07/17 02:42:18;;;;;;;7.13;3.35;;;;;;;15.90;100.00;101492.56;4928989;29;20051;-62
2023/07/17 02:44:46;;;;;;;9.57;3.65;;;;;;;15.88;100.00;101496.38;4931458;28;20055;-64
2023/07/17 02:47:13;;;;;;;8.30;3.67;;;;;;;15.91;100.00;101498.69;4927721;29;20050;-64
2023/07/17 02:49:40;;;;;;;7.35;3.70;;;;;;;15.90;100.00;101503.16;4913726;29;20048;-64
2023/07/17 02:52:07;;;;;;;6.85;3.25;;;;;;;15.85;100.00;101502.81;4918199;29;20058;-63
2023/07/17 02:54:38;;;;;;;6.15;3.17;;;;;;;15.81;100.00;101501.47;4931853;29;20055;-62
2023/07/17 02:57:05;;;;;;;7.55;3.13;;;;;;;15.74;100.00;101497.84;4922519;29;20076;-62
2023/07/17 02:59:32;;;;;;;7.27;3.43;;;;;;;15.77;100.00;101505.44;4921950;29;20074;-63
2023/07/17 03:01:59;;;;;;;6.65;3.10;;;;;;;15.80;100.00;101498.03;4918145;28;20048;-62
2023/07/17 03:04:26;;;;;;;8.35;3.35;;;;;;;15.81;100.00;101514.72;4927413;29;20047;-62
2023/07/17 03:06:53;;;;;;;8.05;3.22;;;;;;;15.79;100.00;101519.34;4929433;29;20047;-64
2023/07/17 03:09:19;;;;;;;7.95;3.28;;;;;;;15.71;100.00;101520.13;4925026;28;20047;-62
2023/07/17 03:11:46;;;;;;;9.20;3.40;;;;;;;15.74;100.00;101516.34;4931537;29;20134;-64
2023/07/17 03:14:13;;;;;;;9.85;3.50;;;;;;;15.70;100.00;101518.50;4908562;29;20062;-64
2023/07/17 03:16:39;;;;;;;8.45;3.97;;;;;;;15.72;100.00;101513.00;4925333;29;20048;-65
2023/07/17 03:19:05;;;;;;;9.18;3.72;;;;;;;15.67;100.00;101516.16;4908425;29;20465;-63
2023/07/17 03:21:32;;;;;;;9.70;3.65;;;;;;;15.63;100.00;101523.56;4920255;29;20458;-64
2023/07/17 03:24:02;;;;;;;7.88;3.60;;;;;;;15.60;100.00;101518.63;4921278;29;20055;-63
2023/07/17 03:26:29;;;;;;;10.40;3.65;;;;;;;15.54;100.00;101523.72;4914777;29;20059;-62
2023/07/17 03:28:56;;;;;;;7.57;3.22;;;;;;;15.55;100.00;101522.75;4934502;29;20061;-65
2023/07/17 03:31:22;;;;;;;7.25;3.00;;;;;;;15.49;100.00;101521.56;4921157;29;20571;-62
2023/07/17 03:33:49;;;;;;;8.20;2.90;;;;;;;15.49;100.00;101511.00;4930798;29;20052;-63
2023/07/17 03:36:15;;;;;;;8.40;3.17;;;;;;;15.43;100.00;101515.13;4918877;28;20051;-64
2023/07/17 03:38:42;;;;;;;8.88;3.15;;;;;;;15.39;100.00;101515.59;4930192;29;20532;-62
2023/07/17 03:41:09;;;;;;;5.80;3.05;;;;;;;15.46;100.00;101516.59;4929072;29;20055;-64
2023/07/17 03:43:35;;;;;;;8.77;3.30;;;;;;;15.41;100.00;101514.44;4921269;28;20051;-63
2023/07/17 03:46:02;;;;;;;8.27;2.97;;;;;;;15.35;100.00;101515.09;4923117;29;20138;-63
2023/07/17 03:48:28;;;;;;;11.57;3.67;;;;;;;15.36;100.00;101519.38;4923254;29;20101;-62
2023/07/17 03:50:55;;;;;;;7.10;3.38;;;;;;;15.35;100.00;101524.84;4925047;29;20051;-63
2023/07/17 03:53:21;;;;;;;10.63;3.47;;;;;;;15.31;100.00;101534.06;4923219;28;20075;-63
2023/07/17 03:55:48;;;;;;;8.63;3.05;;;;;;;15.32;100.00;101525.16;4921061;29;20058;-65
2023/07/17 03:58:14;;;;;;;10.23;3.17;;;;;;;15.27;100.00;101523.00;4923009;29;20076;-62
2023/07/17 04:00:41;;;;;;;8.02;3.28;;;;;;;15.26;100.00;101523.97;4919470;29;20128;-63
2023/07/17 04:03:07;;;;;;;9.48;3.28;;;;;;;15.32;100.00;101533.91;4933351;29;20054;-63
2023/07/17 04:05:34;;;;;;;8.15;3.15;;;;;;;15.32;100.00;101538.38;4923073;28;20063;-62
2023/07/17 04:08:01;;;;;;;9.05;3.05;;;;;;;15.29;100.00;101536.03;4929038;29;20082;-63
2023/07/17 04:10:28;;;;;;;10.13;3.85;;;;;;;15.27;100.00;101543.31;4917521;28;20051;-62
2023/07/17 04:12:55;;;;;;;9.82;3.80;;;;;;;15.22;100.00;101534.03;4922450;29;20054;-62
2023/07/17 04:15:21;;;;;;;7.63;3.05;;;;;;;15.26;100.00;101544.31;4927450;29;20082;-63
2023/07/17 04:17:48;;;;;;;8.23;3.45;;;;;;;15.20;100.00;101540.47;4929485;29;20075;-62
2023/07/17 04:20:16;;;;;;;10.57;3.90;;;;;;;15.16;100.00;101550.53;4927942;29;20078;-62
2023/07/17 04:22:42;;;;;;;9.82;3.63;;;;;;;15.18;100.00;101551.19;4918989;29;20087;-62
2023/07/17 04:25:09;;;;;;;7.45;3.33;;;;;;;15.19;100.00;101552.88;4916395;29;20827;-65
2023/07/17 04:27:36;;;;;;;10.02;3.40;;;;;;;15.16;100.00;101547.91;4916541;28;20047;-64
2023/07/17 04:30:03;;;;;;;9.32;3.47;;;;;;;15.17;100.00;101554.84;4931175;29;20142;-63
2023/07/17 04:32:29;;;;;;;10.63;3.67;;;;;;;15.23;100.00;101563.97;4929417;29;20569;-64
2023/07/17 04:34:56;;;;;;;11.90;3.92;;;;;;;15.20;100.00;101559.78;4915312;29;20052;-64
2023/07/17 04:37:23;;;;;;;10.30;3.63;;;;;;;15.19;100.00;101554.66;4923511;29;20139;-64
2023/07/17 04:39:49;;;;;;;8.20;3.60;;;;;;;15.16;100.00;101561.09;4916415;29;20048;-64
2023/07/17 04:42:16;;;;;;;11.77;4.15;;;;;;;15.18;100.00;101564.41;4928855;29;20135;-64
2023/07/17 04:44:43;;;;;;;8.38;3.70;;;;;;;15.21;100.00;101565.91;4920904;29;20504;-63
2023/07/17 04:47:11;;;;;;;13.30;3.92;;;;;;;15.24;100.00;101573.53;4924999;29;20043;-62
2023/07/17 04:49:37;;;;;;;14.25;4.47;;;;;;;15.24;100.00;101570.88;4929328;29;20378;-62
2023/07/17 04:52:04;;;;;;;9.18;3.80;;;;;;;15.29;100.00;101573.88;4911067;29;20060;-62
2023/07/17 04:54:31;;;;;;;9.32;4.05;;;;;;;15.31;100.00;101573.72;4927991;29;20052;-62
2023/07/17 04:56:57;;;;;;;13.65;4.10;;;;;;;15.32;100.00;101584.13;4920159;29;20083;-62
2023/07/17 04:59:23;;;;;;;11.65;3.72;;;;;;;15.32;100.00;101575.38;4929151;29;20061;-63
2023/07/17 05:01:50;;;;;;;9.40;3.50;;;;;;;15.32;100.00;101580.66;4920168;29;20079;-62
2023/07/17 05:04:16;;;;;;;8.95;3.88;;;;;;;15.32;100.00;101581.50;4928878;29;20083;-62
2023/07/17 05:06:43;;;;;;;11.38;4.40;;;;;;;15.31;100.00;101585.13;4923112;29;20107;-64
2023/07/17 05:09:09;;;;;;;11.73;4.25;;;;;;;15.30;100.00;101585.28;4918481;28;20118;-64
2023/07/17 05:11:36;;;;;;;11.50;3.63;;;;;;;15.32;100.00;101585.94;4928222;29;20047;-62
2023/07/17 05:14:02;;;;;;;10.50;4.30;;;;;;;15.35;100.00;101573.25;4917889;28;20087;-62
2023/07/17 05:16:29;;;;;;;11.20;4.30;;;;;;;15.38;100.00;101580.84;4929237;29;20058;-62
2023/07/17 05:18:55;;;;;;;9.05;4.28;;;;;;;15.35;100.00;101589.09;4922000;29;20055;-62
2023/07/17 05:21:22;;;;;;;8.77;4.05;;;;;;;15.34;100.00;101605.94;4916980;29;20056;-64
2023/07/17 05:23:48;;;;;;;10.13;4.47;;;;;;;15.39;100.00;101595.72;4927512;29;20051;-62
2023/07/17 05:26:15;;;;;;;8.90;4.15;;;;;;;15.41;100.00;101593.75;4918596;29;20138;-61
2023/07/17 05:28:42;;;;;;;14.50;5.70;;;;;;;15.39;100.00;101593.09;4931969;29;20051;-62
2023/07/17 05:31:09;;;;;;;12.65;5.03;;;;;;;15.43;100.00;101602.34;4920681;29;20054;-61
2023/07/17 05:33:35;;;;;;;16.27;4.82;;;;;;;15.41;100.00;101596.41;4924416;29;20074;-61
2023/07/17 05:36:02;;;;;;;15.55;5.55;;;;;;;15.46;100.00;101603.03;4916848;29;20461;-61
2023/07/17 05:38:29;;;;;;;12.57;5.18;;;;;;;15.50;100.00;101605.19;4931647;29;20083;-62
2023/07/17 05:41:02;;;;;;;13.45;4.85;;;;;;;15.57;100.00;101608.84;4931940;29;20051;-61
2023/07/17 05:43:31;;;;;;;15.55;5.97;;;;;;;15.58;100.00;101612.31;4928845;29;20121;-61
2023/07/17 05:45:57;;;;;;;13.77;5.43;;;;;;;15.58;100.00;101610.53;4932059;29;20123;-61
2023/07/17 05:48:24;;;;;;;15.55;5.43;;;;;;;15.65;100.00;101623.91;4919405;29;20051;-62
2023/07/17 05:50:50;;;;;;;13.25;5.00;;;;;;;15.65;100.00;101610.69;4927174;29;20051;-62
2023/07/17 05:53:17;;;;;;;15.35;5.70;;;;;;;15.69;100.00;101613.84;4926484;29;20409;-62
2023/07/17 05:55:44;;;;;;;13.55;5.30;;;;;;;15.77;100.00;101613.91;4930493;29;20058;-62
2023/07/17 05:58:10;;;;;;;13.13;6.30;;;;;;;15.74;100.00;101612.41;4931553;29;20138;-64
2023/07/17 06:00:37;;;;;;;19.02;6.05;;;;;;;15.75;100.00;101627.28;4925466;29;20539;-63
2023/07/17 06:03:03;;;;;;;16.58;6.35;;;;;;;15.81;100.00;101618.69;4899987;29;20470;-63
2023/07/17 06:05:30;;;;;;;13.20;6.20;;;;;;;15.88;100.00;101626.84;4924509;28;20496;-62
2023/07/17 06:07:56;;;;;;;14.15;5.25;;;;;;;15.93;100.00;101629.00;4926067;29;20516;-61
2023/07/17 06:10:23;;;;;;;15.32;6.45;;;;;;;15.99;100.00;101629.19;4921378;29;20567;-61
2023/07/17 06:12:50;;;;;;;13.90;6.05;;;;;;;16.00;100.00;101637.94;4926970;29;20056;-62
2023/07/17 06:15:16;;;;;;;21.70;7.20;;;;;;;15.90;100.00;101635.44;4927600;29;20071;-62
2023/07/17 06:17:43;;;;;;;13.00;6.80;;;;;;;15.93;100.00;101637.75;4916783;29;20052;-62
2023/07/17 06:20:09;;;;;;;16.65;6.32;;;;;;;16.03;100.00;101637.59;4914437;29;20082;-64
2023/07/17 06:22:36;;;;;;;15.18;6.07;;;;;;;16.10;100.00;101645.75;4919674;29;20044;-62
2023/07/17 06:25:04;;;;;;;16.00;6.72;;;;;;;16.15;100.00;101649.56;4929463;29;20057;-62
2023/07/17 06:27:30;;;;;;;13.15;6.13;;;;;;;16.17;100.00;101665.25;4923530;29;20111;-63
2023/07/17 06:29:57;;;;;;;16.35;6.45;;;;;;;16.21;100.00;101656.03;4927636;29;20059;-65
2023/07/17 06:32:24;;;;;;;24.30;8.25;;;;;;;16.20;100.00;101649.06;4910876;29;20044;-65
2023/07/17 06:34:50;;;;;;;19.67;7.35;;;;;;;16.20;100.00;101651.69;4925211;29;20465;-62
2023/07/17 06:37:17;;;;;;;14.10;6.68;;;;;;;16.20;100.00;101660.47;4932203;29;20087;-62
2023/07/17 06:39:43;;;;;;;22.65;6.82;;;;;;;16.23;100.00;101658.47;4926769;29;20134;-63
2023/07/17 06:42:10;;;;;;;14.70;6.45;;;;;;;16.29;100.00;101657.81;4927408;29;20047;-62
2023/07/17 06:44:36;;;;;;;14.63;6.30;;;;;;;16.34;100.00;101658.16;4922165;29;20047;-63
2023/07/17 06:47:03;;;;;;;13.60;5.68;;;;;;;16.46;100.00;101659.50;4928561;29;20162;-63
2023/07/17 06:49:31;;;;;;;17.13;6.47;;;;;;;16.47;100.00;101658.53;4931549;29;20477;-63
2023/07/17 06:51:58;;;;;;;15.02;6.82;;;;;;;16.49;100.00;101675.06;4921858;29;20110;-61
2023/07/17 06:54:24;;;;;;;16.73;6.53;;;;;;;16.55;100.00;101677.06;4928913;29;20095;-63
2023/07/17 06:56:51;;;;;;;14.63;6.57;;;;;;;16.58;100.00;101675.88;4920433;29;20099;-64
2023/07/17 06:59:17;;;;;;;17.48;7.03;;;;;;;16.60;100.00;101672.09;4930886;29;20185;-64
2023/07/17 07:01:44;;;;;;;19.20;6.18;;;;;;;16.72;100.00;101675.25;4925901;28;20048;-64
2023/07/17 07:04:11;;;;;;;15.70;7.13;;;;;;;16.79;100.00;101684.16;4929860;29;20115;-63
2023/07/17 07:06:37;;;;;;;17.20;6.22;;;;;;;16.90;100.00;101675.09;4921177;28;20059;-66
2023/07/17 07:09:04;;;;;;;15.80;6.78;;;;;;;16.94;100.00;101687.00;4923757;29;20047;-65
2023/07/17 07:11:30;;;;;;;20.08;7.20;;;;;;;17.03;100.00;101681.69;4926497;29;20058;-64
2023/07/17 07:13:57;;;;;;;20.35;6.95;;;;;;;17.12;100.00;101680.69;4923285;29;20143;-64
2023/07/17 07:16:23;;;;;;;13.45;6.20;;;;;;;17.14;100.00;101681.34;4928820;29;20475;-64
2023/07/17 07:18:50;;;;;;;17.05;6.55;;;;;;;17.17;100.00;101689.81;4921205;29;20055;-65
2023/07/17 07:21:16;;;;;;;13.65;6.63;;;;;;;17.12;100.00;101694.78;4929407;29;20056;-64
2023/07/17 07:23:43;;;;;;;16.40;7.05;;;;;;;17.10;100.00;101696.75;4923392;29;20536;-64
2023/07/17 07:26:09;;;;;;;15.18;7.25;;;;;;;17.04;100.00;101702.75;4917559;29;20059;-66
2023/07/17 07:28:36;;;;;;;16.42;6.75;;;;;;;17.08;100.00;101700.59;4931710;29;20166;-65
2023/07/17 07:31:02;;;;;;;17.02;6.38;;;;;;;17.02;100.00;101703.91;4925745;29;20094;-64
2023/07/17 07:33:29;;;;;;;14.30;6.25;;;;;;;17.09;100.00;101703.09;4928202;29;20571;-64
2023/07/17 07:35:56;;;;;;;14.98;5.82;;;;;;;17.16;100.00;101705.88;4922951;29;20055;-63
2023/07/17 07:38:22;;;;;;;18.52;6.40;;;;;;;17.20;100.00;101707.19;4921646;29;20134;-65
2023/07/17 07:40:49;;;;;;;14.90;6.70;;;;;;;17.15;100.00;101720.09;4924418;29;20047;-64
2023/07/17 07:43:16;;;;;;;16.05;5.80;;;;;;;17.22;100.00;101712.31;4920505;29;20048;-64
2023/07/17 07:45:42;;;;;;;11.68;5.10;;;;;;;17.30;100.00;101721.09;4931802;29;20058;-64
2023/07/17 07:48:09;;;;;;;11.52;5.63;;;;;;;17.42;100.00;101726.84;4906046;29;20052;-65
2023/07/17 07:50:35;;;;;;;14.20;5.35;;;;;;;17.62;100.00;101721.16;4931587;29;20484;-65
2023/07/17 07:53:02;;;;;;;13.38;5.43;;;;;;;17.64;100.00;101733.28;4915539;29;20062;-64
2023/07/17 07:55:28;;;;;;;12.55;5.95;;;;;;;17.62;100.00;101737.09;4927845;29;20063;-66
2023/07/17 07:57:55;;;;;;;14.40;5.38;;;;;;;17.70;100.00;101735.25;4916869;29;20146;-64
2023/07/17 08:00:21;;;;;;;12.63;6.43;;;;;;;17.69;100.00;101740.72;4924460;29;20051;-65
2023/07/17 08:02:49;;;;;;;12.90;5.55;;;;;;;17.66;100.00;101731.28;4931143;29;20055;-66
2023/07/17 08:05:15;;;;;;;11.98;5.28;;;;;;;17.71;100.00;101736.88;4922799;29;20063;-64
2023/07/17 08:07:42;;;;;;;13.48;5.00;;;;;;;17.79;100.00;101739.50;4923858;29;20643;-65
2023/07/17 08:10:09;;;;;;;12.00;5.10;;;;;;;17.82;100.00;101738.34;4925265;29;20163;-64
2023/07/17 08:12:35;;;;;;;14.95;5.68;;;;;;;17.82;100.00;101745.47;4926822;29;20144;-64
2023/07/17 08:15:02;;;;;;;11.07;5.15;;;;;;;17.90;100.00;101748.97;4926091;28;20151;-65
2023/07/17 08:17:28;;;;;;;16.80;6.00;;;;;;;17.85;100.00;101753.94;4927444;29;20138;-64
2023/07/17 08:19:55;;;;;;;12.52;5.57;;;;;;;17.84;100.00;101754.13;4921744;29;20059;-64
2023/07/17 08:22:21;;;;;;;12.88;5.07;;;;;;;17.92;100.00;101746.16;4917780;29;20082;-64
2023/07/17 08:24:49;;;;;;;11.43;4.60;;;;;;;17.98;99.98;101761.38;4927786;29;20039;-64
2023/07/17 08:27:15;;;;;;;11.65;4.95;;;;;;;18.02;97.34;101767.19;4922133;29;20060;-64
2023/07/17 08:29:42;;;;;;;12.50;5.25;;;;;;;18.07;98.18;101744.44;4915088;29;20075;-66
2023/07/17 08:32:10;;;;;;;12.52;4.55;;;;;;;18.36;99.15;101750.88;4920770;28;20138;-65
2023/07/17 08:34:36;;;;;;;;;;;;;;;18.56;92.53;101753.91;4924510;29;20394;-64
2023/07/17 08:37:03;;;;;;;10.95;4.60;;;;;;;18.51;90.67;101759.78;4925993;29;19927;-66
2023/07/17 08:39:29;;;;;;;10.50;4.20;;;;;;;18.56;93.40;101745.94;4918826;29;20076;-64
2023/07/17 08:41:56;;;;;;;12.05;4.85;;;;;;;18.54;92.71;101762.09;4928769;29;20485;-64
2023/07/17 08:44:24;;;;;;;12.15;4.32;;;;;;;18.49;91.37;101759.13;4926365;29;20094;-64
2023/07/17 08:46:51;;;;;;;11.23;4.47;;;;;;;18.82;89.92;101761.59;4923062;29;20055;-65
2023/07/17 08:49:19;;;;;;;10.77;4.32;;;;;;;19.07;85.28;101756.91;4925695;28;20051;-67
2023/07/17 08:51:51;;;;;;;13.13;3.97;;;;;;;19.28;83.79;101748.19;4920632;29;20084;-65
2023/07/17 08:54:18;;;;;;;11.80;3.90;;;;;;;19.33;81.97;101748.50;4921722;29;20094;-65
2023/07/17 08:57:04;;;;;;;10.73;4.57;;;;;;;19.13;84.29;101750.84;4922280;28;20051;-64
2023/07/17 08:59:32;;;;;;;9.75;4.22;;;;;;;19.51;83.42;101745.47;4928883;29;20043;-64
2023/07/17 09:02:00;;;;;;;8.23;3.78;;;;;;;19.87;81.92;101738.59;4914417;29;20051;-65
2023/07/17 09:04:29;;;;;;;;;;;;;;;20.13;78.55;101738.94;4931261;29;20434;-64
2023/07/17 09:06:56;;;;;;;8.50;3.65;;;;;;;20.23;74.56;101746.63;4921458;29;19930;-66
2023/07/17 09:09:22;;;;;;;11.38;4.50;;;;;;;20.19;72.17;101744.50;4925984;29;20485;-66
2023/07/17 09:12:05;;;;;;;9.68;3.70;;;;;;;20.60;70.58;101743.94;4926648;29;20047;-65
2023/07/17 09:14:32;;;;;;;7.85;3.55;;;;;;;20.60;73.95;101757.28;4921482;29;20103;-65
2023/07/17 09:17:04;;;;;;;9.45;3.80;;;;;;;20.76;70.16;101751.72;4922204;29;20134;-66
2023/07/17 09:19:32;;;;;;;13.40;3.67;;;;;;;20.53;71.31;101751.88;4921802;28;20127;-65
2023/07/17 09:22:01;;;;;;;9.05;3.40;;;;;;;20.48;69.27;101747.09;4925865;29;20075;-66
2023/07/17 09:24:28;;;;;;;8.50;3.58;;;;;;;20.23;71.56;101753.78;4920817;29;20059;-64
2023/07/17 09:26:58;;;;;;;8.25;3.50;;;;;;;20.02;72.13;101757.25;4927630;29;20056;-65
2023/07/17 09:29:24;;;;;;;9.77;3.80;;;;;;;20.00;73.50;101764.59;4917151;29;20110;-64
2023/07/17 09:31:51;;;;;;;10.45;3.67;;;;;;;20.40;74.26;101755.19;4927673;29;20079;-66
2023/07/17 09:34:18;;;;;;;9.10;3.53;;;;;;;20.58;69.45;101743.28;4934951;29;20105;-65
2023/07/17 09:36:50;;;;;;;12.32;3.20;;;;;;;21.04;69.77;101740.25;4920026;29;20110;-65
2023/07/17 09:39:16;;;;;;;9.82;3.88;;;;;;;20.94;66.16;101754.72;4929683;29;20620;-66
2023/07/17 09:41:43;;;;;;;9.00;3.80;;;;;;;20.92;67.84;101747.94;4918684;29;20052;-65
2023/07/17 09:44:17;;;;;;;8.93;3.00;;;;;;;21.16;66.75;101752.03;4908033;29;20587;-67
2023/07/17 09:46:44;;;;;;;11.90;3.63;;;;;;;21.33;65.35;101752.56;4920274;29;20051;-65
2023/07/17 09:49:11;;;;;;;11.40;3.72;;;;;;;21.55;65.27;101756.00;4928572;29;20099;-65
2023/07/17 09:51:37;;;;;;;12.18;3.50;;;;;;;21.83;63.23;101744.44;4914864;29;20052;-66
2023/07/17 09:54:05;;;;;;;8.02;2.83;;;;;;;21.94;63.57;101756.41;4920313;29;20098;-65
2023/07/17 09:56:32;;;;;;;11.73;3.58;;;;;;;21.87;64.25;101749.16;4923574;29;20529;-65
2023/07/17 09:59:17;;;;;;;11.82;3.67;;;;;;;21.85;63.39;101758.41;4914484;29;20051;-65
2023/07/17 10:01:47;;;;;;;10.45;3.40;;;;;;;22.11;63.89;101761.22;4927716;29;20674;-66
2023/07/17 10:04:31;;;;;;;8.10;3.75;;;;;;;22.26;61.57;101762.91;4924759;28;20170;-66
2023/07/17 10:06:59;;;;;;;6.70;3.50;;;;;;;22.49;63.16;101758.03;4926749;29;20047;-65
2023/07/17 10:09:29;;;;;;;11.10;4.10;;;;;;;22.47;61.79;101756.59;4918529;29;20147;-66
2023/07/17 10:11:56;;;;;;;13.35;4.28;;;;;;;22.31;62.81;101739.91;4919363;29;20048;-65
2023/07/17 10:14:24;;;;;;;8.73;3.38;;;;;;;22.07;62.72;101746.59;4922145;29;20044;-65
2023/07/17 10:16:54;;;;;;;10.25;3.63;;;;;;;22.03;63.05;101747.19;4918844;29;20469;-67
2023/07/17 10:19:20;;;;;;;18.00;4.32;;;;;;;22.02;63.84;101750.91;4923959;29;20127;-66
2023/07/17 10:21:55;;;;;;;12.98;3.80;;;;;;;21.82;62.07;101764.16;4920490;29;20047;-66
2023/07/17 10:24:24;;;;;;;9.45;3.97;;;;;;;21.64;63.90;101768.19;4923648;29;20095;-65
2023/07/17 10:26:51;;;;;;;11.25;3.75;;;;;;;21.92;65.09;101768.09;4920823;29;20056;-66
2023/07/17 10:29:31;;;;;;;10.65;3.70;;;;;;;22.15;62.08;101750.09;4932849;29;20052;-64
2023/07/17 10:31:58;;;;;;;9.30;3.63;;;;;;;21.78;61.07;101770.91;4926286;29;20083;-66
2023/07/17 10:34:50;;;;;;;9.52;3.58;;;;;;;22.08;60.86;101758.91;4933062;29;20070;-66
2023/07/17 10:37:18;;;;;;;9.82;3.40;;;;;;;22.04;60.08;101765.69;4911695;29;20394;-65
2023/07/17 10:39:45;;;;;;;11.45;4.20;;;;;;;22.09;59.80;101768.59;4902542;29;20107;-67
2023/07/17 10:42:12;;;;;;;8.15;3.17;;;;;;;22.37;60.33;101762.34;4930160;29;20402;-65
2023/07/17 10:44:40;;;;;;;10.50;3.90;;;;;;;22.80;59.26;101767.34;4926740;29;20106;-65
2023/07/17 10:47:07;;;;;;;9.55;3.72;;;;;;;22.96;58.42;101759.94;4930211;29;20048;-65
2023/07/17 10:49:33;;;;;;;9.50;3.90;;;;;;;23.20;57.91;101770.03;4929202;28;20051;-65
2023/07/17 10:52:00;;;;;;;11.63;4.07;;;;;;;22.95;56.77;101783.19;4926066;29;20548;-66
2023/07/17 10:54:27;;;;;;;5.68;1.88;;;;;;;22.80;56.19;101791.41;4926366;29;20511;-65
2023/07/17 10:56:55;;;;;;;4.63;1.98;;;;;;;22.65;57.27;101793.44;4921536;28;20066;-66
2023/07/17 10:59:22;;;;;;;;;;;;;;;22.56;57.59;101789.31;4936494;29;20043;-65
2023/07/17 11:01:49;;;;;;;2.47;1.13;;;;;;;22.52;59.06;101791.56;4927703;29;19930;-65
2023/07/17 11:04:17;;;;;;;2.10;1.05;;;;;;;22.60;58.85;101787.88;4931830;29;20055;-65
2023/07/17 11:06:44;;;;;;;3.00;1.20;;;;;;;22.63;59.19;101796.31;4921638;29;20055;-66
2023/07/17 11:09:10;;;;;;;3.03;1.25;;;;;;;23.03;59.57;101784.84;4919220;29;20460;-65
2023/07/17 11:11:37;;;;;;;5.32;1.48;;;;;;;23.30;58.38;101783.81;4913821;29;20087;-65
2023/07/17 11:14:04;;;;;;;6.43;1.70;;;;;;;23.16;56.61;101782.19;4920725;29;20474;-66
2023/07/17 11:16:32;;;;;;;;;;;;;;;23.15;57.82;101779.72;4923764;29;20110;-66